sensor_id;sensor_type;location;lat;lon;timestamp;temperature;humidity
11599;DHT22;5855;48.840;9.188;2022-07-12T00:01:58;16.50;99.90
11599;DHT22;5855;48.840;9.188;2022-07-12T00:04:26;16.40;99.90
11599;DHT22;5855;48.840;9.188;2022-07-12T00:06:53;16.40;99.90
11599;DHT22;5855;48.840;9.188;2022-07-12T00:09:27;16.40;99.90
11599;DHT22;5855;48.840;9.188;2022-07-12T00:12:14;16.40;99.90
11599;DHT22;5855;48.840;9.188;2022-07-12T00:14:53;16.30;99.90
11599;DHT22;5855;48.840;9.188;2022-07-12T00:17:20;16.30;99.90
11599;DHT22;5855;48.840;9.188;2022-07-12T00:19:48;16.30;99.90
11599;DHT22;5855;48.840;9.188;2022-07-12T00:22:16;16.20;99.90
11599;DHT22;5855;48.840;9.188;2022-07-12T00:24:43;16.10;99.90
11599;DHT22;5855;48.840;9.188;2022-07-12T00:27:10;16.10;99.90
11599;DHT22;5855;48.840;9.188;2022-07-12T00:29:36;16.00;99.90
11599;DHT22;5855;48.840;9.188;2022-07-12T00:32:04;16.00;99.90
11599;DHT22;5855;48.840;9.188;2022-07-12T00:34:31;16.00;99.90
11599;DHT22;5855;48.840;9.188;2022-07-12T00:36:59;16.00;99.90
11599;DHT22;5855;48.840;9.188;2022-07-12T00:39:26;16.00;99.90
11599;DHT22;5855;48.840;9.188;2022-07-12T00:41:52;16.00;99.90
11599;DHT22;5855;48.840;9.188;2022-07-12T00:44:19;16.00;99.90
11599;DHT22;5855;48.840;9.188;2022-07-12T00:46:46;16.00;99.90
11599;DHT22;5855;48.840;9.188;2022-07-12T00:49:14;16.00;99.90
11599;DHT22;5855;48.840;9.188;2022-07-12T00:51:42;16.00;99.90
11599;DHT22;5855;48.840;9.188;2022-07-12T00:54:11;16.00;99.90
11599;DHT22;5855;48.840;9.188;2022-07-12T00:56:38;16.10;99.90
11599;DHT22;5855;48.840;9.188;2022-07-12T00:59:05;16.10;99.90
11599;DHT22;5855;48.840;9.188;2022-07-12T01:01:32;16.20;99.90
11599;DHT22;5855;48.840;9.188;2022-07-12T01:04:00;16.20;99.90
11599;DHT22;5855;48.840;9.188;2022-07-12T01:06:27;16.30;99.90
11599;DHT22;5855;48.840;9.188;2022-07-12T01:08:56;16.30;99.90
11599;DHT22;5855;48.840;9.188;2022-07-12T01:11:26;16.30;99.90
11599;DHT22;5855;48.840;9.188;2022-07-12T01:13:53;16.30;99.90
11599;DHT22;5855;48.840;9.188;2022-07-12T01:16:21;16.30;99.90
11599;DHT22;5855;48.840;9.188;2022-07-12T01:18:49;16.30;99.90
11599;DHT22;5855;48.840;9.188;2022-07-12T01:21:18;16.30;99.90
11599;DHT22;5855;48.840;9.188;2022-07-12T01:23:50;16.40;99.90
11599;DHT22;5855;48.840;9.188;2022-07-12T01:26:17;16.40;99.90
11599;DHT22;5855;48.840;9.188;2022-07-12T01:28:44;16.40;99.90
11599;DHT22;5855;48.840;9.188;2022-07-12T01:31:12;16.40;99.90
11599;DHT22;5855;48.840;9.188;2022-07-12T01:33:38;16.40;99.90
11599;DHT22;5855;48.840;9.188;2022-07-12T01:36:06;16.40;99.90
11599;DHT22;5855;48.840;9.188;2022-07-12T01:38:33;16.40;99.90
11599;DHT22;5855;48.840;9.188;2022-07-12T01:41:01;16.40;99.90
11599;DHT22;5855;48.840;9.188;2022-07-12T01:43:28;16.30;99.90
11599;DHT22;5855;48.840;9.188;2022-07-12T01:45:55;16.20;99.90
11599;DHT22;5855;48.840;9.188;2022-07-12T01:48:22;16.20;99.90
11599;DHT22;5855;48.840;9.188;2022-07-12T01:50:49;16.10;99.90
11599;DHT22;5855;48.840;9.188;2022-07-12T01:53:16;16.00;99.90
11599;DHT22;5855;48.840;9.188;2022-07-12T01:55:43;16.00;99.90
11599;DHT22;5855;48.840;9.188;2022-07-12T01:58:14;15.90;99.90
11599;DHT22;5855;48.840;9.188;2022-07-12T02:00:41;15.90;99.90
11599;DHT22;5855;48.840;9.188;2022-07-12T02:03:08;15.80;99.90
11599;DHT22;5855;48.840;9.188;2022-07-12T02:05:35;15.80;99.90
11599;DHT22;5855;48.840;9.188;2022-07-12T02:08:02;15.70;99.90
11599;DHT22;5855;48.840;9.188;2022-07-12T02:10:35;15.70;99.90
11599;DHT22;5855;48.840;9.188;2022-07-12T02:13:03;15.60;99.90
11599;DHT22;5855;48.840;9.188;2022-07-12T02:15:31;15.50;99.90
11599;DHT22;5855;48.840;9.188;2022-07-12T02:17:58;15.50;99.90
11599;DHT22;5855;48.840;9.188;2022-07-12T02:20:49;15.50;99.90
11599;DHT22;5855;48.840;9.188;2022-07-12T02:23:16;15.50;99.90
11599;DHT22;5855;48.840;9.188;2022-07-12T02:25:43;15.50;99.90
11599;DHT22;5855;48.840;9.188;2022-07-12T02:28:10;15.40;99.90
11599;DHT22;5855;48.840;9.188;2022-07-12T02:30:38;15.40;99.90
11599;DHT22;5855;48.840;9.188;2022-07-12T02:33:05;15.30;99.90
11599;DHT22;5855;48.840;9.188;2022-07-12T02:35:32;15.30;99.90
11599;DHT22;5855;48.840;9.188;2022-07-12T02:37:59;15.20;99.90
11599;DHT22;5855;48.840;9.188;2022-07-12T02:40:25;15.20;99.90
11599;DHT22;5855;48.840;9.188;2022-07-12T02:43:10;15.10;99.90
11599;DHT22;5855;48.840;9.188;2022-07-12T02:45:38;15.20;99.90
11599;DHT22;5855;48.840;9.188;2022-07-12T02:48:05;15.10;99.90
11599;DHT22;5855;48.840;9.188;2022-07-12T02:50:32;15.00;99.90
11599;DHT22;5855;48.840;9.188;2022-07-12T02:52:59;15.00;99.90
11599;DHT22;5855;48.840;9.188;2022-07-12T02:55:25;15.00;99.90
11599;DHT22;5855;48.840;9.188;2022-07-12T02:57:52;15.00;99.90
11599;DHT22;5855;48.840;9.188;2022-07-12T03:00:19;15.00;99.90
11599;DHT22;5855;48.840;9.188;2022-07-12T03:02:47;14.90;99.90
11599;DHT22;5855;48.840;9.188;2022-07-12T03:05:14;14.90;99.90
11599;DHT22;5855;48.840;9.188;2022-07-12T03:07:41;14.80;99.90
11599;DHT22;5855;48.840;9.188;2022-07-12T03:10:08;14.70;99.90
11599;DHT22;5855;48.840;9.188;2022-07-12T03:12:36;14.70;99.90
11599;DHT22;5855;48.840;9.188;2022-07-12T03:15:04;14.60;99.90
11599;DHT22;5855;48.840;9.188;2022-07-12T03:17:32;14.60;99.90
11599;DHT22;5855;48.840;9.188;2022-07-12T03:20:00;14.60;99.90
11599;DHT22;5855;48.840;9.188;2022-07-12T03:22:27;14.60;99.90
11599;DHT22;5855;48.840;9.188;2022-07-12T03:24:54;14.60;99.90
11599;DHT22;5855;48.840;9.188;2022-07-12T03:27:21;14.60;99.90
11599;DHT22;5855;48.840;9.188;2022-07-12T03:29:48;14.60;99.90
11599;DHT22;5855;48.840;9.188;2022-07-12T03:32:15;14.60;99.90
11599;DHT22;5855;48.840;9.188;2022-07-12T03:34:42;14.60;99.90
11599;DHT22;5855;48.840;9.188;2022-07-12T03:37:10;14.60;99.90
11599;DHT22;5855;48.840;9.188;2022-07-12T03:39:37;14.60;99.90
11599;DHT22;5855;48.840;9.188;2022-07-12T03:42:04;14.60;99.90
11599;DHT22;5855;48.840;9.188;2022-07-12T03:44:31;14.60;99.90
11599;DHT22;5855;48.840;9.188;2022-07-12T03:46:59;14.60;99.90
11599;DHT22;5855;48.840;9.188;2022-07-12T03:49:26;14.60;99.90
11599;DHT22;5855;48.840;9.188;2022-07-12T03:51:52;14.60;99.90
11599;DHT22;5855;48.840;9.188;2022-07-12T03:54:21;14.60;99.90
11599;DHT22;5855;48.840;9.188;2022-07-12T03:56:47;14.60;99.90
11599;DHT22;5855;48.840;9.188;2022-07-12T03:59:32;14.60;99.90
11599;DHT22;5855;48.840;9.188;2022-07-12T04:01:59;14.60;99.90
11599;DHT22;5855;48.840;9.188;2022-07-12T04:04:27;14.70;99.90
11599;DHT22;5855;48.840;9.188;2022-07-12T04:06:54;14.80;99.90
11599;DHT22;5855;48.840;9.188;2022-07-12T04:09:22;14.70;99.90
11599;DHT22;5855;48.840;9.188;2022-07-12T04:11:49;14.70;99.90
11599;DHT22;5855;48.840;9.188;2022-07-12T04:14:16;14.70;99.90
11599;DHT22;5855;48.840;9.188;2022-07-12T04:16:42;14.60;99.90
11599;DHT22;5855;48.840;9.188;2022-07-12T04:19:10;14.70;99.90
11599;DHT22;5855;48.840;9.188;2022-07-12T04:21:37;14.80;99.90
11599;DHT22;5855;48.840;9.188;2022-07-12T04:24:05;14.90;99.90
11599;DHT22;5855;48.840;9.188;2022-07-12T04:26:33;14.90;99.90
11599;DHT22;5855;48.840;9.188;2022-07-12T04:29:00;14.90;99.90
11599;DHT22;5855;48.840;9.188;2022-07-12T04:31:27;14.80;99.90
11599;DHT22;5855;48.840;9.188;2022-07-12T04:33:54;14.80;99.90
11599;DHT22;5855;48.840;9.188;2022-07-12T04:36:21;14.80;99.90
11599;DHT22;5855;48.840;9.188;2022-07-12T04:38:47;14.80;99.90
11599;DHT22;5855;48.840;9.188;2022-07-12T04:41:15;14.80;99.90
11599;DHT22;5855;48.840;9.188;2022-07-12T04:43:43;14.90;99.90
11599;DHT22;5855;48.840;9.188;2022-07-12T04:46:10;14.90;99.90
11599;DHT22;5855;48.840;9.188;2022-07-12T04:48:37;14.90;99.90
11599;DHT22;5855;48.840;9.188;2022-07-12T04:51:04;14.90;99.90
11599;DHT22;5855;48.840;9.188;2022-07-12T04:53:31;14.90;99.90
11599;DHT22;5855;48.840;9.188;2022-07-12T04:55:58;15.00;99.90
11599;DHT22;5855;48.840;9.188;2022-07-12T04:58:24;15.00;99.90
11599;DHT22;5855;48.840;9.188;2022-07-12T05:00:53;15.00;99.90
11599;DHT22;5855;48.840;9.188;2022-07-12T05:03:23;15.10;99.90
11599;DHT22;5855;48.840;9.188;2022-07-12T05:05:53;15.10;99.90
11599;DHT22;5855;48.840;9.188;2022-07-12T05:08:20;15.20;99.90
11599;DHT22;5855;48.840;9.188;2022-07-12T05:10:47;15.30;99.90
11599;DHT22;5855;48.840;9.188;2022-07-12T05:13:14;15.40;99.90
11599;DHT22;5855;48.840;9.188;2022-07-12T05:15:41;15.40;99.90
11599;DHT22;5855;48.840;9.188;2022-07-12T05:18:09;15.50;99.90
11599;DHT22;5855;48.840;9.188;2022-07-12T05:20:36;15.50;99.90
11599;DHT22;5855;48.840;9.188;2022-07-12T05:23:03;15.60;99.90
11599;DHT22;5855;48.840;9.188;2022-07-12T05:25:29;15.60;99.90
11599;DHT22;5855;48.840;9.188;2022-07-12T05:27:56;15.60;99.90
11599;DHT22;5855;48.840;9.188;2022-07-12T05:30:25;15.60;99.90
11599;DHT22;5855;48.840;9.188;2022-07-12T05:32:52;15.80;99.90
11599;DHT22;5855;48.840;9.188;2022-07-12T05:35:20;15.90;99.90
11599;DHT22;5855;48.840;9.188;2022-07-12T05:37:47;15.90;99.90
11599;DHT22;5855;48.840;9.188;2022-07-12T05:40:14;16.00;99.90
11599;DHT22;5855;48.840;9.188;2022-07-12T05:42:41;16.10;99.90
11599;DHT22;5855;48.840;9.188;2022-07-12T05:45:08;16.20;99.90
11599;DHT22;5855;48.840;9.188;2022-07-12T05:47:35;16.30;99.90
11599;DHT22;5855;48.840;9.188;2022-07-12T05:50:04;16.40;99.90
11599;DHT22;5855;48.840;9.188;2022-07-12T05:52:32;16.50;99.90
11599;DHT22;5855;48.840;9.188;2022-07-12T05:55:17;16.60;99.90
11599;DHT22;5855;48.840;9.188;2022-07-12T05:57:44;16.70;99.90
11599;DHT22;5855;48.840;9.188;2022-07-12T06:00:12;16.80;99.90
11599;DHT22;5855;48.840;9.188;2022-07-12T06:02:39;17.00;99.90
11599;DHT22;5855;48.840;9.188;2022-07-12T06:05:06;17.10;99.90
11599;DHT22;5855;48.840;9.188;2022-07-12T06:07:35;17.20;99.90
11599;DHT22;5855;48.840;9.188;2022-07-12T06:10:02;17.30;99.90
11599;DHT22;5855;48.840;9.188;2022-07-12T06:12:29;17.40;99.90
11599;DHT22;5855;48.840;9.188;2022-07-12T06:14:56;17.50;99.90
11599;DHT22;5855;48.840;9.188;2022-07-12T06:17:23;17.60;99.90
11599;DHT22;5855;48.840;9.188;2022-07-12T06:19:50;17.70;99.90
11599;DHT22;5855;48.840;9.188;2022-07-12T06:22:16;17.70;99.90
11599;DHT22;5855;48.840;9.188;2022-07-12T06:24:45;17.90;99.90
11599;DHT22;5855;48.840;9.188;2022-07-12T06:27:11;18.00;99.90
11599;DHT22;5855;48.840;9.188;2022-07-12T06:29:38;18.00;99.90
11599;DHT22;5855;48.840;9.188;2022-07-12T06:32:06;18.10;99.90
11599;DHT22;5855;48.840;9.188;2022-07-12T06:34:36;18.20;99.90
11599;DHT22;5855;48.840;9.188;2022-07-12T06:37:04;18.30;99.90
11599;DHT22;5855;48.840;9.188;2022-07-12T06:39:33;18.40;99.90
11599;DHT22;5855;48.840;9.188;2022-07-12T06:42:02;18.40;99.90
11599;DHT22;5855;48.840;9.188;2022-07-12T06:44:29;18.50;99.90
11599;DHT22;5855;48.840;9.188;2022-07-12T06:46:57;18.60;99.90
11599;DHT22;5855;48.840;9.188;2022-07-12T06:49:24;18.70;99.90
11599;DHT22;5855;48.840;9.188;2022-07-12T06:51:51;18.80;99.90
11599;DHT22;5855;48.840;9.188;2022-07-12T06:54:18;18.80;99.90
11599;DHT22;5855;48.840;9.188;2022-07-12T06:56:45;18.90;99.90
11599;DHT22;5855;48.840;9.188;2022-07-12T06:59:13;19.00;99.90
11599;DHT22;5855;48.840;9.188;2022-07-12T07:01:40;19.10;99.90
11599;DHT22;5855;48.840;9.188;2022-07-12T07:04:07;19.20;99.90
11599;DHT22;5855;48.840;9.188;2022-07-12T07:06:33;19.40;99.90
11599;DHT22;5855;48.840;9.188;2022-07-12T07:09:00;19.50;99.90
11599;DHT22;5855;48.840;9.188;2022-07-12T07:11:27;19.60;99.90
11599;DHT22;5855;48.840;9.188;2022-07-12T07:13:54;19.80;99.90
11599;DHT22;5855;48.840;9.188;2022-07-12T07:16:22;19.90;99.90
11599;DHT22;5855;48.840;9.188;2022-07-12T07:18:50;20.10;99.90
11599;DHT22;5855;48.840;9.188;2022-07-12T07:21:17;20.20;99.90
11599;DHT22;5855;48.840;9.188;2022-07-12T07:23:43;20.40;99.90
11599;DHT22;5855;48.840;9.188;2022-07-12T07:26:11;20.50;99.90
11599;DHT22;5855;48.840;9.188;2022-07-12T07:28:37;20.60;99.90
11599;DHT22;5855;48.840;9.188;2022-07-12T07:31:19;20.70;99.90
11599;DHT22;5855;48.840;9.188;2022-07-12T07:33:47;20.80;99.90
11599;DHT22;5855;48.840;9.188;2022-07-12T07:36:14;21.00;99.90
11599;DHT22;5855;48.840;9.188;2022-07-12T07:38:41;21.10;99.90
11599;DHT22;5855;48.840;9.188;2022-07-12T07:41:07;21.30;99.90
11599;DHT22;5855;48.840;9.188;2022-07-12T07:43:34;21.50;99.90
11599;DHT22;5855;48.840;9.188;2022-07-12T07:46:01;21.60;99.90
11599;DHT22;5855;48.840;9.188;2022-07-12T07:48:28;21.80;99.90
11599;DHT22;5855;48.840;9.188;2022-07-12T07:50:57;22.10;99.90
11599;DHT22;5855;48.840;9.188;2022-07-12T07:53:23;22.40;99.90
11599;DHT22;5855;48.840;9.188;2022-07-12T07:55:51;22.70;99.90
11599;DHT22;5855;48.840;9.188;2022-07-12T07:58:18;22.90;99.90
11599;DHT22;5855;48.840;9.188;2022-07-12T08:00:46;23.20;99.90
11599;DHT22;5855;48.840;9.188;2022-07-12T08:03:13;23.30;99.90
11599;DHT22;5855;48.840;9.188;2022-07-12T08:05:40;23.40;99.90
11599;DHT22;5855;48.840;9.188;2022-07-12T08:08:09;23.60;99.90
11599;DHT22;5855;48.840;9.188;2022-07-12T08:10:36;23.70;99.90
11599;DHT22;5855;48.840;9.188;2022-07-12T08:13:04;23.90;99.90
11599;DHT22;5855;48.840;9.188;2022-07-12T08:15:31;24.00;99.90
11599;DHT22;5855;48.840;9.188;2022-07-12T08:17:58;24.10;99.90
11599;DHT22;5855;48.840;9.188;2022-07-12T08:20:25;23.70;99.90
11599;DHT22;5855;48.840;9.188;2022-07-12T08:22:52;23.60;99.90
11599;DHT22;5855;48.840;9.188;2022-07-12T08:25:20;23.90;99.90
11599;DHT22;5855;48.840;9.188;2022-07-12T08:27:47;24.10;99.90
11599;DHT22;5855;48.840;9.188;2022-07-12T08:30:14;24.20;99.90
11599;DHT22;5855;48.840;9.188;2022-07-12T08:32:43;24.30;99.90
11599;DHT22;5855;48.840;9.188;2022-07-12T08:35:10;24.20;99.50
11599;DHT22;5855;48.840;9.188;2022-07-12T08:37:37;24.20;99.60
11599;DHT22;5855;48.840;9.188;2022-07-12T08:40:05;24.20;99.80
11599;DHT22;5855;48.840;9.188;2022-07-12T08:42:34;24.50;99.90
11599;DHT22;5855;48.840;9.188;2022-07-12T08:45:01;24.80;99.20
11599;DHT22;5855;48.840;9.188;2022-07-12T08:47:28;25.00;98.50
11599;DHT22;5855;48.840;9.188;2022-07-12T08:50:14;25.30;98.20
11599;DHT22;5855;48.840;9.188;2022-07-12T08:52:44;25.60;97.60
11599;DHT22;5855;48.840;9.188;2022-07-12T08:55:22;25.80;97.10
11599;DHT22;5855;48.840;9.188;2022-07-12T08:57:52;26.10;96.70
11599;DHT22;5855;48.840;9.188;2022-07-12T09:00:20;26.40;96.10
11599;DHT22;5855;48.840;9.188;2022-07-12T09:02:48;26.60;95.20
11599;DHT22;5855;48.840;9.188;2022-07-12T09:05:17;26.60;94.90
11599;DHT22;5855;48.840;9.188;2022-07-12T09:07:45;26.90;95.20
11599;DHT22;5855;48.840;9.188;2022-07-12T09:10:12;27.10;94.40
11599;DHT22;5855;48.840;9.188;2022-07-12T09:12:40;27.40;94.40
11599;DHT22;5855;48.840;9.188;2022-07-12T09:15:13;27.60;92.90
11599;DHT22;5855;48.840;9.188;2022-07-12T09:17:41;27.50;92.40
11599;DHT22;5855;48.840;9.188;2022-07-12T09:20:12;27.40;92.40
11599;DHT22;5855;48.840;9.188;2022-07-12T09:22:50;27.00;92.70
11599;DHT22;5855;48.840;9.188;2022-07-12T09:25:17;26.80;92.80
11599;DHT22;5855;48.840;9.188;2022-07-12T09:27:50;26.70;92.80
11599;DHT22;5855;48.840;9.188;2022-07-12T09:30:19;26.80;93.20
11599;DHT22;5855;48.840;9.188;2022-07-12T09:32:50;27.10;92.60
11599;DHT22;5855;48.840;9.188;2022-07-12T09:35:35;27.30;92.70
11599;DHT22;5855;48.840;9.188;2022-07-12T09:38:19;27.70;92.50
11599;DHT22;5855;48.840;9.188;2022-07-12T09:40:46;28.10;91.40
11599;DHT22;5855;48.840;9.188;2022-07-12T09:43:14;28.40;90.60
11599;DHT22;5855;48.840;9.188;2022-07-12T09:45:44;28.60;89.70
11599;DHT22;5855;48.840;9.188;2022-07-12T09:48:13;28.80;88.00
11599;DHT22;5855;48.840;9.188;2022-07-12T09:50:41;29.10;87.90
11599;DHT22;5855;48.840;9.188;2022-07-12T09:53:11;29.50;87.50
11599;DHT22;5855;48.840;9.188;2022-07-12T09:55:41;29.70;85.10
11599;DHT22;5855;48.840;9.188;2022-07-12T09:58:11;29.50;85.30
11599;DHT22;5855;48.840;9.188;2022-07-12T10:00:39;29.60;85.20
11599;DHT22;5855;48.840;9.188;2022-07-12T10:03:09;29.50;84.00
11599;DHT22;5855;48.840;9.188;2022-07-12T10:05:38;29.50;82.50
11599;DHT22;5855;48.840;9.188;2022-07-12T10:08:07;29.50;83.80
11599;DHT22;5855;48.840;9.188;2022-07-12T10:10:34;29.70;82.20
11599;DHT22;5855;48.840;9.188;2022-07-12T10:13:02;29.80;81.90
11599;DHT22;5855;48.840;9.188;2022-07-12T10:15:30;30.00;81.40
11599;DHT22;5855;48.840;9.188;2022-07-12T10:18:00;30.00;79.80
11599;DHT22;5855;48.840;9.188;2022-07-12T10:20:28;30.20;79.50
11599;DHT22;5855;48.840;9.188;2022-07-12T10:22:56;30.30;78.80
11599;DHT22;5855;48.840;9.188;2022-07-12T10:25:42;30.50;76.80
11599;DHT22;5855;48.840;9.188;2022-07-12T10:28:09;30.60;75.50
11599;DHT22;5855;48.840;9.188;2022-07-12T10:30:42;30.70;75.40
11599;DHT22;5855;48.840;9.188;2022-07-12T10:33:14;30.60;74.60
11599;DHT22;5855;48.840;9.188;2022-07-12T10:35:57;30.30;75.60
11599;DHT22;5855;48.840;9.188;2022-07-12T10:38:24;30.20;75.10
11599;DHT22;5855;48.840;9.188;2022-07-12T10:40:52;29.60;75.70
11599;DHT22;5855;48.840;9.188;2022-07-12T10:43:24;29.60;78.40
11599;DHT22;5855;48.840;9.188;2022-07-12T10:46:14;30.10;75.90
11599;DHT22;5855;48.840;9.188;2022-07-12T10:48:43;30.80;74.10
11599;DHT22;5855;48.840;9.188;2022-07-12T10:51:15;31.20;72.50
11599;DHT22;5855;48.840;9.188;2022-07-12T10:53:45;31.20;70.40
11599;DHT22;5855;48.840;9.188;2022-07-12T10:56:16;31.40;70.60
11599;DHT22;5855;48.840;9.188;2022-07-12T10:58:46;31.70;68.80
11599;DHT22;5855;48.840;9.188;2022-07-12T11:01:17;32.00;68.10
11599;DHT22;5855;48.840;9.188;2022-07-12T11:03:47;32.40;67.20
11599;DHT22;5855;48.840;9.188;2022-07-12T11:06:17;32.50;65.70
11599;DHT22;5855;48.840;9.188;2022-07-12T11:08:57;32.70;64.60
11599;DHT22;5855;48.840;9.188;2022-07-12T11:11:26;33.00;63.10
11599;DHT22;5855;48.840;9.188;2022-07-12T11:13:54;33.30;61.40
11599;DHT22;5855;48.840;9.188;2022-07-12T11:16:22;33.40;59.00
11599;DHT22;5855;48.840;9.188;2022-07-12T11:18:49;33.40;60.40
11599;DHT22;5855;48.840;9.188;2022-07-12T11:21:18;33.80;58.20
11599;DHT22;5855;48.840;9.188;2022-07-12T11:23:45;33.60;58.50
11599;DHT22;5855;48.840;9.188;2022-07-12T11:29:34;33.40;58.90
11599;DHT22;5855;48.840;9.188;2022-07-12T11:32:03;34.00;58.20
11599;DHT22;5855;48.840;9.188;2022-07-12T11:34:33;34.50;56.80
11599;DHT22;5855;48.840;9.188;2022-07-12T11:37:02;35.00;55.50
11599;DHT22;5855;48.840;9.188;2022-07-12T11:39:30;35.60;53.60
11599;DHT22;5855;48.840;9.188;2022-07-12T11:41:58;35.40;52.20
11599;DHT22;5855;48.840;9.188;2022-07-12T11:44:41;35.70;51.80
11599;DHT22;5855;48.840;9.188;2022-07-12T11:47:08;36.10;49.70
11599;DHT22;5855;48.840;9.188;2022-07-12T11:49:35;36.50;48.50
11599;DHT22;5855;48.840;9.188;2022-07-12T11:52:06;37.00;46.90
11599;DHT22;5855;48.840;9.188;2022-07-12T11:54:33;37.30;46.00
11599;DHT22;5855;48.840;9.188;2022-07-12T11:57:07;37.60;45.00
11599;DHT22;5855;48.840;9.188;2022-07-12T11:59:34;38.10;44.00
11599;DHT22;5855;48.840;9.188;2022-07-12T12:02:05;38.50;43.20
11599;DHT22;5855;48.840;9.188;2022-07-12T12:04:33;38.80;42.80
11599;DHT22;5855;48.840;9.188;2022-07-12T12:07:11;39.00;41.90
11599;DHT22;5855;48.840;9.188;2022-07-12T12:10:04;39.30;40.70
11599;DHT22;5855;48.840;9.188;2022-07-12T12:12:41;39.80;39.70
11599;DHT22;5855;48.840;9.188;2022-07-12T12:15:09;40.50;38.40
11599;DHT22;5855;48.840;9.188;2022-07-12T12:17:37;40.40;37.60
11599;DHT22;5855;48.840;9.188;2022-07-12T12:20:10;40.70;35.60
11599;DHT22;5855;48.840;9.188;2022-07-12T12:22:39;40.80;35.10
11599;DHT22;5855;48.840;9.188;2022-07-12T12:25:06;41.00;34.70
11599;DHT22;5855;48.840;9.188;2022-07-12T12:30:50;42.00;31.60
11599;DHT22;5855;48.840;9.188;2022-07-12T12:33:32;42.10;30.20
11599;DHT22;5855;48.840;9.188;2022-07-12T12:36:14;42.70;31.20
11599;DHT22;5855;48.840;9.188;2022-07-12T12:38:43;43.50;30.30
11599;DHT22;5855;48.840;9.188;2022-07-12T12:41:11;44.20;29.20
11599;DHT22;5855;48.840;9.188;2022-07-12T12:43:38;44.50;28.70
11599;DHT22;5855;48.840;9.188;2022-07-12T12:46:05;44.80;28.00
11599;DHT22;5855;48.840;9.188;2022-07-12T12:48:33;44.80;27.10
11599;DHT22;5855;48.840;9.188;2022-07-12T12:51:05;44.90;27.20
11599;DHT22;5855;48.840;9.188;2022-07-12T12:53:32;44.80;26.50
11599;DHT22;5855;48.840;9.188;2022-07-12T12:56:01;44.40;26.40
11599;DHT22;5855;48.840;9.188;2022-07-12T12:58:31;44.50;26.50
11599;DHT22;5855;48.840;9.188;2022-07-12T13:00:58;45.40;26.30
11599;DHT22;5855;48.840;9.188;2022-07-12T13:03:24;45.60;24.90
11599;DHT22;5855;48.840;9.188;2022-07-12T13:05:52;45.40;24.80
11599;DHT22;5855;48.840;9.188;2022-07-12T13:08:19;44.10;25.00
11599;DHT22;5855;48.840;9.188;2022-07-12T13:10:47;44.60;25.50
11599;DHT22;5855;48.840;9.188;2022-07-12T13:13:36;45.20;25.60
11599;DHT22;5855;48.840;9.188;2022-07-12T13:16:04;45.40;24.60
11599;DHT22;5855;48.840;9.188;2022-07-12T13:18:32;46.10;24.00
11599;DHT22;5855;48.840;9.188;2022-07-12T13:20:59;47.10;23.60
11599;DHT22;5855;48.840;9.188;2022-07-12T13:23:26;46.60;23.00
11599;DHT22;5855;48.840;9.188;2022-07-12T13:25:53;45.30;23.30
11599;DHT22;5855;48.840;9.188;2022-07-12T13:31:43;45.90;24.00
11599;DHT22;5855;48.840;9.188;2022-07-12T13:34:09;46.40;23.50
11599;DHT22;5855;48.840;9.188;2022-07-12T13:36:36;46.90;24.00
11599;DHT22;5855;48.840;9.188;2022-07-12T13:39:03;47.40;22.60
11599;DHT22;5855;48.840;9.188;2022-07-12T13:41:44;47.80;22.30
11599;DHT22;5855;48.840;9.188;2022-07-12T13:44:11;48.30;21.90
11599;DHT22;5855;48.840;9.188;2022-07-12T13:46:37;48.60;21.70
11599;DHT22;5855;48.840;9.188;2022-07-12T13:49:06;49.20;21.50
11599;DHT22;5855;48.840;9.188;2022-07-12T13:51:33;49.60;20.50
11599;DHT22;5855;48.840;9.188;2022-07-12T13:54:00;49.50;20.20
11599;DHT22;5855;48.840;9.188;2022-07-12T13:56:26;49.70;19.90
11599;DHT22;5855;48.840;9.188;2022-07-12T13:58:53;49.90;19.40
11599;DHT22;5855;48.840;9.188;2022-07-12T14:01:20;49.50;19.60
11599;DHT22;5855;48.840;9.188;2022-07-12T14:03:47;49.50;19.40
11599;DHT22;5855;48.840;9.188;2022-07-12T14:06:15;49.10;19.40
11599;DHT22;5855;48.840;9.188;2022-07-12T14:08:42;49.40;19.20
11599;DHT22;5855;48.840;9.188;2022-07-12T14:11:09;49.70;19.00
11599;DHT22;5855;48.840;9.188;2022-07-12T14:13:36;50.20;18.20
11599;DHT22;5855;48.840;9.188;2022-07-12T14:16:03;48.60;18.10
11599;DHT22;5855;48.840;9.188;2022-07-12T14:18:30;48.10;18.70
11599;DHT22;5855;48.840;9.188;2022-07-12T14:20:57;48.60;19.60
11599;DHT22;5855;48.840;9.188;2022-07-12T14:23:25;49.00;18.70
11599;DHT22;5855;48.840;9.188;2022-07-12T14:25:52;49.70;18.50
11599;DHT22;5855;48.840;9.188;2022-07-12T14:28:21;49.80;18.40
11599;DHT22;5855;48.840;9.188;2022-07-12T14:30:48;49.70;18.10
11599;DHT22;5855;48.840;9.188;2022-07-12T14:33:15;49.90;17.90
11599;DHT22;5855;48.840;9.188;2022-07-12T14:35:42;49.10;17.50
11599;DHT22;5855;48.840;9.188;2022-07-12T14:38:09;48.80;18.10
11599;DHT22;5855;48.840;9.188;2022-07-12T14:40:37;48.50;18.00
11599;DHT22;5855;48.840;9.188;2022-07-12T14:43:06;49.00;18.30
11599;DHT22;5855;48.840;9.188;2022-07-12T14:45:33;48.90;18.10
11599;DHT22;5855;48.840;9.188;2022-07-12T14:48:00;47.60;18.40
11599;DHT22;5855;48.840;9.188;2022-07-12T14:50:27;48.20;18.40
11599;DHT22;5855;48.840;9.188;2022-07-12T14:52:54;48.80;18.20
11599;DHT22;5855;48.840;9.188;2022-07-12T14:55:21;48.60;17.80
11599;DHT22;5855;48.840;9.188;2022-07-12T14:57:49;49.00;17.60
11599;DHT22;5855;48.840;9.188;2022-07-12T15:00:16;49.20;17.80
11599;DHT22;5855;48.840;9.188;2022-07-12T15:02:42;49.30;17.60
11599;DHT22;5855;48.840;9.188;2022-07-12T15:05:09;49.10;17.20
11599;DHT22;5855;48.840;9.188;2022-07-12T15:07:36;49.10;16.70
11599;DHT22;5855;48.840;9.188;2022-07-12T15:10:04;48.60;17.30
11599;DHT22;5855;48.840;9.188;2022-07-12T15:12:31;48.50;17.40
11599;DHT22;5855;48.840;9.188;2022-07-12T15:14:59;48.70;17.70
11599;DHT22;5855;48.840;9.188;2022-07-12T15:17:27;49.10;17.30
11599;DHT22;5855;48.840;9.188;2022-07-12T15:19:55;49.20;16.90
11599;DHT22;5855;48.840;9.188;2022-07-12T15:22:21;49.50;16.80
11599;DHT22;5855;48.840;9.188;2022-07-12T15:24:48;49.20;16.70
11599;DHT22;5855;48.840;9.188;2022-07-12T15:27:15;49.20;16.90
11599;DHT22;5855;48.840;9.188;2022-07-12T15:29:42;49.60;16.60
11599;DHT22;5855;48.840;9.188;2022-07-12T15:32:12;49.20;16.60
11599;DHT22;5855;48.840;9.188;2022-07-12T15:34:38;49.40;16.40
11599;DHT22;5855;48.840;9.188;2022-07-12T15:37:05;49.60;16.10
11599;DHT22;5855;48.840;9.188;2022-07-12T15:39:32;49.70;16.00
11599;DHT22;5855;48.840;9.188;2022-07-12T15:41:59;49.90;15.70
11599;DHT22;5855;48.840;9.188;2022-07-12T15:44:26;50.10;15.50
11599;DHT22;5855;48.840;9.188;2022-07-12T15:46:54;50.30;15.40
11599;DHT22;5855;48.840;9.188;2022-07-12T15:49:22;50.80;15.20
11599;DHT22;5855;48.840;9.188;2022-07-12T15:51:49;50.70;15.50
11599;DHT22;5855;48.840;9.188;2022-07-12T15:54:33;50.80;14.90
11599;DHT22;5855;48.840;9.188;2022-07-12T15:57:00;50.90;15.10
11599;DHT22;5855;48.840;9.188;2022-07-12T15:59:27;51.10;14.80
11599;DHT22;5855;48.840;9.188;2022-07-12T16:01:54;50.90;14.90
11599;DHT22;5855;48.840;9.188;2022-07-12T16:04:22;50.00;14.90